createdAt,value
2018-08-23T00:01:14.461Z,21.40
2018-08-23T00:03:43.234Z,22.40
2018-08-23T00:06:12.002Z,20.00
2018-08-23T00:08:44.826Z,20.47
2018-08-23T00:11:13.568Z,21.90
2018-08-23T00:13:45.069Z,21.30
2018-08-23T00:16:13.949Z,22.60
2018-08-23T00:18:42.638Z,20.97
2018-08-23T00:21:16.516Z,20.63
2018-08-23T00:23:48.941Z,26.03
2018-08-23T00:26:18.029Z,21.50
2018-08-23T00:28:46.724Z,23.57
2018-08-23T00:31:15.501Z,20.30
2018-08-23T00:33:44.185Z,20.70
2018-08-23T00:36:12.873Z,21.30
2018-08-23T00:38:41.608Z,22.73
2018-08-23T00:41:10.314Z,21.47
2018-08-23T00:43:39.010Z,20.40
2018-08-23T00:46:12.830Z,19.30
2018-08-23T00:48:41.519Z,20.93
2018-08-23T00:51:10.209Z,22.10
2018-08-23T00:53:38.985Z,21.90
2018-08-23T00:56:20.461Z,21.30
2018-08-23T00:58:53.433Z,21.43
2018-08-23T01:01:22.167Z,21.60
2018-08-23T01:03:50.962Z,21.73
2018-08-23T01:06:23.017Z,22.50
2018-08-23T01:08:51.739Z,19.57
2018-08-23T01:11:20.430Z,21.80
2018-08-23T01:13:49.121Z,21.10
2018-08-23T01:16:17.833Z,21.73
2018-08-23T01:18:46.561Z,22.33
2018-08-23T01:21:15.273Z,21.17
2018-08-23T01:23:43.986Z,22.07
2018-08-23T01:26:12.760Z,24.07
2018-08-23T01:28:41.449Z,21.80
2018-08-23T01:31:22.985Z,23.50
2018-08-23T01:33:56.414Z,22.10
2018-08-23T01:36:30.544Z,22.07
2018-08-23T01:38:59.334Z,20.80
2018-08-23T01:41:28.078Z,22.10
2018-08-23T01:43:56.804Z,21.13
2018-08-23T01:46:33.297Z,20.40
2018-08-23T01:49:02.054Z,19.30
2018-08-23T01:51:30.746Z,19.43
2018-08-23T01:53:59.422Z,20.73
2018-08-23T01:56:28.112Z,19.17
2018-08-23T01:58:56.805Z,18.30
2018-08-23T02:01:25.496Z,19.83
2018-08-23T02:03:54.201Z,21.30
2018-08-23T02:06:27.038Z,22.27
2018-08-23T02:08:55.726Z,19.80
2018-08-23T02:11:24.423Z,20.30
2018-08-23T02:13:53.117Z,20.93
2018-08-23T02:16:21.801Z,21.30
2018-08-23T02:18:50.957Z,22.80
2018-08-23T02:21:19.694Z,21.30
2018-08-23T02:23:53.134Z,20.27
2018-08-23T02:26:21.816Z,20.67
2018-08-23T02:28:51.007Z,20.33
2018-08-23T02:31:19.813Z,20.20
2018-08-23T02:33:48.502Z,21.70
2018-08-23T02:36:17.598Z,20.87
2018-08-23T02:38:47.977Z,21.40
2018-08-23T02:41:17.386Z,20.40
2018-08-23T02:43:46.605Z,21.00
2018-08-23T02:46:15.398Z,19.83
2018-08-23T02:48:44.110Z,21.80
2018-08-23T02:51:12.850Z,21.33
2018-08-23T02:53:43.051Z,22.33
2018-08-23T02:56:19.566Z,23.10
2018-08-23T02:58:59.046Z,20.93
2018-08-23T03:01:31.720Z,23.80
2018-08-23T03:04:09.519Z,24.27
2018-08-23T03:06:44.178Z,22.20
2018-08-23T03:09:12.876Z,22.50
2018-08-23T03:11:41.612Z,22.13
2018-08-23T03:14:10.350Z,22.50
2018-08-23T03:16:49.898Z,20.50
2018-08-23T03:19:18.713Z,23.03
2018-08-23T03:21:47.849Z,19.83
2018-08-23T03:24:20.802Z,25.60
2018-08-23T03:26:49.800Z,22.50
2018-08-23T03:29:18.527Z,22.57
2018-08-23T03:31:47.247Z,21.80
2018-08-23T03:34:15.950Z,21.97
2018-08-23T03:36:44.665Z,22.87
2018-08-23T03:39:13.374Z,22.73
2018-08-23T03:41:42.084Z,21.10
2018-08-23T03:44:53.999Z,21.07
2018-08-23T03:47:23.197Z,20.07
2018-08-23T03:49:52.203Z,19.90
2018-08-23T03:52:23.162Z,20.70
2018-08-23T03:54:56.452Z,17.70
2018-08-23T03:57:29.290Z,17.53
2018-08-23T03:59:57.998Z,18.37
2018-08-23T04:02:26.773Z,17.40
2018-08-23T04:05:05.107Z,16.17
2018-08-23T04:07:33.813Z,15.80
2018-08-23T04:10:02.587Z,14.73
2018-08-23T04:12:31.299Z,13.87
2018-08-23T04:15:17.172Z,16.30
2018-08-23T04:17:46.704Z,14.37
2018-08-23T04:20:15.551Z,13.37
2018-08-23T04:22:44.291Z,14.57
2018-08-23T04:25:12.991Z,14.43
2018-08-23T04:27:41.767Z,11.77
2018-08-23T04:30:10.916Z,13.53
2018-08-23T04:32:41.511Z,11.20
2018-08-23T04:35:12.127Z,12.10
2018-08-23T04:37:40.924Z,10.60
2018-08-23T04:40:10.585Z,12.70
2018-08-23T04:42:39.319Z,10.63
2018-08-23T04:45:11.649Z,12.30
2018-08-23T04:47:49.737Z,10.60
2018-08-23T04:50:18.499Z,10.03
2018-08-23T04:52:47.228Z,13.57
2018-08-23T04:55:16.047Z,10.23
2018-08-23T04:57:44.767Z,10.17
2018-08-23T05:00:13.536Z,10.90
2018-08-23T05:02:42.266Z,9.20
2018-08-23T05:05:10.998Z,9.27
2018-08-23T05:07:39.765Z,11.27
2018-08-23T05:10:08.525Z,10.00
2018-08-23T05:12:37.331Z,10.40
2018-08-23T05:15:06.070Z,10.87
2018-08-23T05:17:34.800Z,10.57
2018-08-23T05:20:03.568Z,9.97
2018-08-23T05:22:32.295Z,10.07
2018-08-23T05:25:06.045Z,10.50
2018-08-23T05:27:45.304Z,10.07
2018-08-23T05:30:14.058Z,10.90
2018-08-23T05:32:42.811Z,9.27
2018-08-23T05:35:11.575Z,10.47
2018-08-23T05:37:40.351Z,9.10
2018-08-23T05:40:09.128Z,8.63
2018-08-23T05:42:51.263Z,9.43
2018-08-23T05:45:23.169Z,8.67
2018-08-23T05:47:52.176Z,8.20
2018-08-23T05:50:24.984Z,9.40
2018-08-23T05:52:53.738Z,8.70
2018-08-23T05:55:22.489Z,8.00
2018-08-23T05:57:51.418Z,9.20
2018-08-23T06:00:20.250Z,8.20
2018-08-23T06:02:49.117Z,8.17
2018-08-23T06:05:17.921Z,9.57
2018-08-23T06:07:46.649Z,7.83
2018-08-23T06:10:15.416Z,9.10
2018-08-23T06:12:44.137Z,8.60
2018-08-23T06:15:12.934Z,8.90
2018-08-23T06:17:41.752Z,8.40
2018-08-23T06:20:10.573Z,7.10
2018-08-23T06:22:39.277Z,6.70
2018-08-23T06:25:08.006Z,7.40
2018-08-23T06:27:36.750Z,7.50
2018-08-23T06:30:06.078Z,7.23
2018-08-23T06:32:34.823Z,6.47
2018-08-23T06:35:03.555Z,7.43
2018-08-23T06:37:32.523Z,6.83
2018-08-23T06:40:01.278Z,6.30
2018-08-23T06:42:45.812Z,6.30
2018-08-23T06:45:14.560Z,6.17
2018-08-23T06:47:45.337Z,6.63
2018-08-23T06:50:14.123Z,6.83
2018-08-23T06:52:48.126Z,7.30
2018-08-23T06:55:21.051Z,7.20
2018-08-23T06:57:51.348Z,7.67
2018-08-23T07:00:26.505Z,6.80
2018-08-23T07:02:55.321Z,6.40
2018-08-23T07:05:24.362Z,6.50
2018-08-23T07:07:53.193Z,6.87
2018-08-23T07:10:21.943Z,6.10
2018-08-23T07:12:50.854Z,7.37
2018-08-23T07:15:19.603Z,6.27
2018-08-23T07:17:48.544Z,6.72
2018-08-23T07:20:17.591Z,5.92
2018-08-23T07:22:46.390Z,7.10
2018-08-23T07:25:16.664Z,7.92
2018-08-23T07:27:45.489Z,7.25
2018-08-23T07:30:18.526Z,7.33
2018-08-23T07:32:48.430Z,8.98
2018-08-23T07:35:18.916Z,8.15
2018-08-23T07:37:48.983Z,8.33
2018-08-23T07:40:19.849Z,10.18
2018-08-23T07:42:50.117Z,9.30
2018-08-23T07:45:18.889Z,9.45
2018-08-23T07:47:49.928Z,9.83
2018-08-23T07:50:18.709Z,10.05
2018-08-23T07:52:49.823Z,9.85
2018-08-23T07:55:18.486Z,8.33
2018-08-23T07:57:47.336Z,5.78
2018-08-23T08:00:35.879Z,6.47
2018-08-23T08:03:04.643Z,6.50
2018-08-23T08:05:35.969Z,5.30
2018-08-23T08:08:04.925Z,5.33
2018-08-23T08:10:36.718Z,8.40
2018-08-23T08:13:05.448Z,7.10
2018-08-23T08:15:34.262Z,7.45
2018-08-23T08:18:06.851Z,7.60
2018-08-23T08:20:35.577Z,8.43
2018-08-23T08:23:04.333Z,6.87
2018-08-23T08:25:33.534Z,6.87
2018-08-23T08:28:02.241Z,7.53
2018-08-23T08:30:42.473Z,6.75
2018-08-23T08:33:16.788Z,7.28
2018-08-23T08:35:46.249Z,6.40
2018-08-23T08:38:15.040Z,6.92
2018-08-23T08:40:43.822Z,6.62
2018-08-23T08:43:12.551Z,7.35
2018-08-23T08:45:41.395Z,4.65
2018-08-23T08:48:20.277Z,4.95
2018-08-23T08:51:06.304Z,4.17
2018-08-23T08:53:35.512Z,4.90
2018-08-23T08:56:04.247Z,3.50
2018-08-23T08:58:32.974Z,3.10
2018-08-23T09:01:01.720Z,3.85
2018-08-23T09:03:37.841Z,3.90
2018-08-23T09:06:09.886Z,3.65
2018-08-23T09:08:39.304Z,3.60
2018-08-23T09:11:08.120Z,3.85
2018-08-23T09:13:42.037Z,3.05
2018-08-23T09:16:11.726Z,4.03
2018-08-23T09:18:43.593Z,4.28
2018-08-23T09:21:12.364Z,4.12
2018-08-23T09:23:41.206Z,3.80
2018-08-23T09:26:09.931Z,3.40
2018-08-23T09:28:38.674Z,3.37
2018-08-23T09:31:07.440Z,3.95
2018-08-23T09:33:36.149Z,5.17
2018-08-23T09:36:05.222Z,4.60
2018-08-23T09:38:33.943Z,2.75
2018-08-23T09:41:02.701Z,3.20
2018-08-23T09:43:31.896Z,4.55
2018-08-23T09:46:00.596Z,2.95
2018-08-23T09:48:29.330Z,3.35
2018-08-23T09:50:58.835Z,3.85
2018-08-23T09:53:27.569Z,3.50
2018-08-23T09:55:57.198Z,3.37
2018-08-23T09:58:31.140Z,3.62
2018-08-23T10:01:04.987Z,3.80
2018-08-23T10:03:38.832Z,4.17
2018-08-23T10:06:13.112Z,3.77
2018-08-23T10:08:46.850Z,3.83
2018-08-23T10:11:21.263Z,2.90
2018-08-23T10:13:55.063Z,3.20
2018-08-23T10:16:28.886Z,3.15
2018-08-23T10:19:01.538Z,3.58
2018-08-23T10:21:35.427Z,3.80
2018-08-23T10:24:13.022Z,3.60
2018-08-23T10:26:41.889Z,3.40
2018-08-23T10:29:10.650Z,3.25
2018-08-23T10:31:39.599Z,4.47
2018-08-23T10:34:08.434Z,3.70
2018-08-23T10:36:37.280Z,4.65
2018-08-23T10:39:09.036Z,4.15
2018-08-23T10:41:37.903Z,4.45
2018-08-23T10:44:06.907Z,2.98
2018-08-23T10:46:42.882Z,3.50
2018-08-23T10:49:11.900Z,3.80
2018-08-23T10:51:42.363Z,3.83
2018-08-23T10:54:14.067Z,3.40
2018-08-23T10:56:42.887Z,3.12
2018-08-23T10:59:11.790Z,2.85
2018-08-23T11:01:40.460Z,3.67
2018-08-23T11:04:10.396Z,4.17
2018-08-23T11:06:44.373Z,5.33
2018-08-23T11:09:28.016Z,3.77
2018-08-23T11:11:57.042Z,4.00
2018-08-23T11:14:30.974Z,3.62
2018-08-23T11:17:04.964Z,3.83
2018-08-23T11:21:46.672Z,3.67
2018-08-23T11:24:15.444Z,3.60
2018-08-23T11:26:44.268Z,4.30
2018-08-23T11:29:13.170Z,3.55
2018-08-23T11:31:41.925Z,3.08
2018-08-23T11:34:10.761Z,3.75
2018-08-23T11:36:39.966Z,3.65
2018-08-23T11:39:09.598Z,4.12
2018-08-23T11:41:38.401Z,4.03
2018-08-23T11:44:07.154Z,3.80
2018-08-23T11:46:35.945Z,3.50
2018-08-23T11:49:04.810Z,2.98
2018-08-23T11:51:33.533Z,3.70
2018-08-23T11:54:02.438Z,3.47
2018-08-23T11:56:31.310Z,3.60
2018-08-23T11:59:00.337Z,3.37
2018-08-23T12:01:29.180Z,4.00
2018-08-23T12:03:57.990Z,4.20
2018-08-23T12:06:26.847Z,5.03
2018-08-23T12:08:55.661Z,5.30
2018-08-23T12:11:24.536Z,4.10
2018-08-23T12:13:53.302Z,3.20
2018-08-23T12:16:22.147Z,3.25
2018-08-23T12:18:51.141Z,3.92
2018-08-23T12:21:19.991Z,4.20
2018-08-23T12:23:48.846Z,5.53
2018-08-23T12:26:18.405Z,4.00
2018-08-23T12:28:52.177Z,3.10
2018-08-23T12:31:20.941Z,3.70
2018-08-23T12:33:49.808Z,4.45
2018-08-23T12:36:23.672Z,4.22
2018-08-23T12:38:57.590Z,4.25
2018-08-23T12:41:31.862Z,4.10
2018-08-23T12:44:00.708Z,3.05
2018-08-23T12:46:29.718Z,3.35
2018-08-23T12:48:59.195Z,3.83
2018-08-23T12:51:28.153Z,3.92
2018-08-23T12:53:57.017Z,3.55
2018-08-23T12:56:25.799Z,3.70
2018-08-23T12:58:54.731Z,4.12
2018-08-23T13:01:23.567Z,3.45
2018-08-23T13:03:52.433Z,3.45
2018-08-23T13:06:21.277Z,4.62
2018-08-23T13:08:50.172Z,4.33
2018-08-23T13:11:18.967Z,3.53
2018-08-23T13:13:47.684Z,5.13
2018-08-23T13:16:16.561Z,3.90
2018-08-23T13:18:45.449Z,4.30
2018-08-23T13:21:14.270Z,4.33
2018-08-23T13:23:46.160Z,4.90
2018-08-23T13:26:15.089Z,5.10
2018-08-23T13:28:43.909Z,4.90
2018-08-23T13:31:12.783Z,4.50
2018-08-23T13:33:41.590Z,5.53
2018-08-23T13:36:10.496Z,5.30
2018-08-23T13:38:39.382Z,6.80
2018-08-23T13:41:08.238Z,5.40
2018-08-23T13:43:37.170Z,6.00
2018-08-23T13:46:05.877Z,5.77
2018-08-23T13:48:34.769Z,4.73
2018-08-23T13:51:03.641Z,5.80
2018-08-23T13:53:32.510Z,6.63
2018-08-23T13:56:01.242Z,6.20
2018-08-23T13:58:30.107Z,5.30
2018-08-23T14:00:58.979Z,5.93
2018-08-23T14:03:27.764Z,6.43
2018-08-23T14:05:56.565Z,5.00
2018-08-23T14:08:25.342Z,5.20
2018-08-23T14:10:54.095Z,5.20
2018-08-23T14:13:23.033Z,5.03
2018-08-23T14:15:56.933Z,5.30
2018-08-23T14:18:25.746Z,6.37
2018-08-23T14:20:54.592Z,5.83
2018-08-23T14:23:23.425Z,6.70
2018-08-23T14:25:52.191Z,4.30
2018-08-23T14:28:21.049Z,4.53
2018-08-23T14:30:49.895Z,5.80
2018-08-23T14:33:18.743Z,4.97
2018-08-23T14:35:47.755Z,4.80
2018-08-23T14:38:16.589Z,6.03
2018-08-23T14:40:45.417Z,5.53
2018-08-23T14:43:14.251Z,4.27
2018-08-23T14:45:43.082Z,5.37
2018-08-23T14:48:19.317Z,5.60
2018-08-23T14:50:54.829Z,5.90
2018-08-23T14:53:29.856Z,5.50
2018-08-23T14:56:03.800Z,5.73
2018-08-23T14:58:32.741Z,5.67
2018-08-23T15:01:01.628Z,4.83
2018-08-23T15:03:30.519Z,5.73
2018-08-23T15:05:59.324Z,5.30
2018-08-23T15:08:28.194Z,5.23
2018-08-23T15:10:57.004Z,5.47
2018-08-23T15:13:25.836Z,5.87
2018-08-23T15:15:54.832Z,4.93
2018-08-23T15:18:23.736Z,5.50
2018-08-23T15:20:52.640Z,5.67
2018-08-23T15:23:21.335Z,5.20
2018-08-23T15:25:50.072Z,5.80
2018-08-23T15:28:18.810Z,5.73
2018-08-23T15:30:47.550Z,4.93
2018-08-23T15:33:16.336Z,6.20
2018-08-23T15:35:45.140Z,8.40
2018-08-23T15:38:13.886Z,5.90
2018-08-23T15:40:42.627Z,5.87
2018-08-23T15:43:11.362Z,8.23
2018-08-23T15:45:40.190Z,6.33
2018-08-23T15:48:08.937Z,6.17
2018-08-23T15:50:37.724Z,5.20
2018-08-23T15:53:06.524Z,5.90
2018-08-23T15:55:35.573Z,6.90
2018-08-23T15:58:04.265Z,5.80
2018-08-23T16:00:41.078Z,6.47
2018-08-23T16:03:10.045Z,7.50
2018-08-23T16:05:39.502Z,6.40
2018-08-23T16:08:08.219Z,7.03
2018-08-23T16:10:36.981Z,6.57
2018-08-23T16:13:05.717Z,9.57
2018-08-23T16:15:34.578Z,7.43
2018-08-23T16:18:08.427Z,6.43
2018-08-23T16:20:42.517Z,7.80
2018-08-23T16:23:11.226Z,6.30
2018-08-23T16:25:45.069Z,9.40
2018-08-23T16:28:13.864Z,8.20
2018-08-23T16:30:43.640Z,7.23
2018-08-23T16:33:12.988Z,6.50
2018-08-23T16:35:42.283Z,6.53
2018-08-23T16:38:11.000Z,8.13
2018-08-23T16:40:39.838Z,8.80
2018-08-23T16:43:08.592Z,9.93
2018-08-23T16:45:37.303Z,10.00
2018-08-23T16:48:06.107Z,8.90
2018-08-23T16:50:34.868Z,11.60
2018-08-23T16:53:03.807Z,9.53
2018-08-23T16:55:32.561Z,10.00
2018-08-23T16:58:01.306Z,18.93
2018-08-23T17:00:30.047Z,16.20
2018-08-23T17:02:58.879Z,12.17
2018-08-23T17:05:27.606Z,10.70
2018-08-23T17:07:56.380Z,9.30
2018-08-23T17:10:25.082Z,9.40
2018-08-23T17:12:54.026Z,8.30
2018-08-23T17:15:22.923Z,9.20
2018-08-23T17:17:55.610Z,9.57
2018-08-23T17:20:24.357Z,9.63
2018-08-23T17:22:53.049Z,9.60
2018-08-23T17:25:21.934Z,10.23
2018-08-23T17:27:50.703Z,10.50
2018-08-23T17:30:19.486Z,9.67
2018-08-23T17:32:48.258Z,13.23
2018-08-23T17:35:16.962Z,8.57
2018-08-23T17:37:45.759Z,7.77
2018-08-23T17:40:14.469Z,8.33
2018-08-23T17:42:43.763Z,8.80
2018-08-23T17:45:13.807Z,9.27
2018-08-23T17:47:42.591Z,10.00
2018-08-23T17:50:11.499Z,9.83
2018-08-23T17:52:40.329Z,8.90
2018-08-23T17:55:09.116Z,7.60
2018-08-23T17:57:37.909Z,10.77
2018-08-23T18:00:06.731Z,10.33
2018-08-23T18:02:35.526Z,8.87
2018-08-23T18:05:04.301Z,10.27
2018-08-23T18:07:33.077Z,10.90
2018-08-23T18:10:01.850Z,10.40
2018-08-23T18:12:30.694Z,11.20
2018-08-23T18:14:59.624Z,12.20
2018-08-23T18:17:28.361Z,11.90
2018-08-23T18:19:57.122Z,11.43
2018-08-23T18:22:25.894Z,12.53
2018-08-23T18:24:54.688Z,13.93
2018-08-23T18:27:23.490Z,11.80
2018-08-23T18:29:52.222Z,12.27
2018-08-23T18:32:21.023Z,12.27
2018-08-23T18:34:49.799Z,10.33
2018-08-23T18:37:18.549Z,14.93
2018-08-23T18:39:47.286Z,16.60
2018-08-23T18:42:16.030Z,25.63
2018-08-23T18:44:44.790Z,12.93
2018-08-23T18:47:13.923Z,12.63
2018-08-23T18:49:42.688Z,11.87
2018-08-23T18:52:11.440Z,12.63
2018-08-23T18:54:40.247Z,12.00
2018-08-23T18:57:09.032Z,13.30
2018-08-23T18:59:37.823Z,13.40
2018-08-23T19:02:06.671Z,12.67
2018-08-23T19:04:35.390Z,13.57
2018-08-23T19:07:04.338Z,12.97
2018-08-23T19:09:33.149Z,14.30
2018-08-23T19:12:02.002Z,13.73
2018-08-23T19:14:30.749Z,229.87
2018-08-23T19:17:04.900Z,129.80
2018-08-23T19:19:33.681Z,58.13
2018-08-23T19:22:02.454Z,39.07
2018-08-23T19:24:31.241Z,16.33
2018-08-23T19:27:00.037Z,13.47
2018-08-23T19:29:28.906Z,14.17
2018-08-23T19:31:57.649Z,15.67
2018-08-23T19:34:26.518Z,13.40
2018-08-23T19:36:55.306Z,13.60
2018-08-23T19:39:24.695Z,13.40
2018-08-23T19:41:55.954Z,13.47
2018-08-23T19:44:24.755Z,13.10
2018-08-23T19:46:58.743Z,13.30
2018-08-23T19:49:33.048Z,14.50
2018-08-23T19:52:01.935Z,12.87
2018-08-23T19:54:30.905Z,14.90
2018-08-23T19:56:59.729Z,15.43
2018-08-23T19:59:30.961Z,13.27
2018-08-23T20:01:59.993Z,13.93
2018-08-23T20:04:28.838Z,13.80
2018-08-23T20:06:57.684Z,12.57
2018-08-23T20:09:26.409Z,13.43
2018-08-23T20:11:57.462Z,14.30
2018-08-23T20:14:26.348Z,12.70
2018-08-23T20:16:57.207Z,13.03
2018-08-23T20:19:26.046Z,13.13
2018-08-23T20:21:54.921Z,12.80
2018-08-23T20:24:23.741Z,14.87
2018-08-23T20:26:52.585Z,14.47
2018-08-23T20:29:21.717Z,14.37
2018-08-23T20:31:50.512Z,12.10
2018-08-23T20:34:21.991Z,14.00
2018-08-23T20:36:54.781Z,14.23
2018-08-23T20:39:24.900Z,12.53
2018-08-23T20:41:57.818Z,11.37
2018-08-23T20:44:29.927Z,13.30
2018-08-23T20:47:01.764Z,14.87
2018-08-23T20:49:33.864Z,13.57
2018-08-23T20:52:05.573Z,12.93
2018-08-23T20:54:37.326Z,14.80
2018-08-23T20:57:09.462Z,13.20
2018-08-23T20:59:38.284Z,14.13
2018-08-23T21:02:07.033Z,15.57
2018-08-23T21:04:35.946Z,13.10
2018-08-23T21:07:04.780Z,12.53
2018-08-23T21:09:33.595Z,13.30
2018-08-23T21:12:02.326Z,13.00
2018-08-23T21:14:31.128Z,11.00
2018-08-23T21:16:59.928Z,11.53
2018-08-23T21:19:28.685Z,11.17
2018-08-23T21:21:57.484Z,12.57
2018-08-23T21:24:26.328Z,12.40
2018-08-23T21:26:55.105Z,14.57
2018-08-23T21:29:23.924Z,13.37
2018-08-23T21:31:52.669Z,12.53
2018-08-23T21:34:21.469Z,12.73
2018-08-23T21:36:50.286Z,11.70
2018-08-23T21:39:19.044Z,10.47
2018-08-23T21:41:47.792Z,9.80
2018-08-23T21:44:16.640Z,10.17
2018-08-23T21:46:45.426Z,10.77
2018-08-23T21:49:14.213Z,11.20
2018-08-23T21:51:43.032Z,10.00
2018-08-23T21:54:11.813Z,11.17
2018-08-23T21:56:40.514Z,11.00
2018-08-23T21:59:09.311Z,11.23
2018-08-23T22:01:38.093Z,10.90
2018-08-23T22:04:06.864Z,10.30
2018-08-23T22:06:35.589Z,11.40
2018-08-23T22:09:05.070Z,10.77
2018-08-23T22:11:33.805Z,10.40
2018-08-23T22:14:02.517Z,13.73
2018-08-23T22:16:31.242Z,12.60
2018-08-23T22:18:59.962Z,12.60
2018-08-23T22:21:28.715Z,12.83
2018-08-23T22:23:57.498Z,11.60
2018-08-23T22:26:26.258Z,12.37
2018-08-23T22:28:54.961Z,12.20
2018-08-23T22:31:23.669Z,12.77
2018-08-23T22:33:52.385Z,12.87
2018-08-23T22:36:21.116Z,12.37
2018-08-23T22:38:49.842Z,13.23
2018-08-23T22:41:18.557Z,11.83
2018-08-23T22:43:47.281Z,13.23
2018-08-23T22:46:16.006Z,11.97
2018-08-23T22:48:44.746Z,12.97
2018-08-23T22:51:13.450Z,10.63
2018-08-23T22:53:42.205Z,13.00
2018-08-23T22:56:10.945Z,14.10
2018-08-23T22:58:39.687Z,12.17
2018-08-23T23:01:08.410Z,12.37
2018-08-23T23:03:42.163Z,11.70
2018-08-23T23:06:10.928Z,11.90
2018-08-23T23:08:39.650Z,12.13
2018-08-23T23:11:08.386Z,13.23
2018-08-23T23:13:37.122Z,11.90
2018-08-23T23:16:05.818Z,12.73
2018-08-23T23:18:34.618Z,12.33
2018-08-23T23:21:03.342Z,10.33
2018-08-23T23:23:32.074Z,12.30
2018-08-23T23:26:00.773Z,11.83
2018-08-23T23:28:29.468Z,11.83
2018-08-23T23:30:58.170Z,12.40
2018-08-23T23:33:26.873Z,11.30
2018-08-23T23:35:55.612Z,13.13
2018-08-23T23:38:24.340Z,12.90
2018-08-23T23:40:53.056Z,10.50
2018-08-23T23:43:21.782Z,11.50
2018-08-23T23:45:50.511Z,12.07
2018-08-23T23:48:19.262Z,11.00
2018-08-23T23:50:47.980Z,12.00
2018-08-23T23:53:16.775Z,10.90
2018-08-23T23:55:45.504Z,13.23
2018-08-23T23:58:14.301Z,12.13
